Time;durP1;ratioP1;P1;durP2;ratioP2;P2;SDS_P1;SDS_P2;PMS_P1;PMS_P2;Temp;Humidity;BMP_temperature;BMP_pressure;BME280_temperature;BME280_humidity;BME280_pressure;Samples;Min_cycle;Max_cycle;Signal;HPM_P1;HPM_P2
2021/03/24 00:01:14;;;;;;;28.27;18.00;;;7.50;99.90;;;;;;5082314;28;20220;-82
2021/03/24 00:03:41;;;;;;;35.90;17.65;;;7.40;99.90;;;;;;5085600;28;20223;-82
2021/03/24 00:06:08;;;;;;;25.80;16.20;;;7.40;99.90;;;;;;5079881;28;20232;-82
2021/03/24 00:08:35;;;;;;;25.90;17.48;;;7.30;99.90;;;;;;5083299;28;20271;-83
2021/03/24 00:11:01;;;;;;;18.15;15.57;;;7.20;99.90;;;;;;5076435;28;20329;-81
2021/03/24 00:13:28;;;;;;;24.08;16.38;;;7.20;99.90;;;;;;5085616;28;20266;-81
2021/03/24 00:15:55;;;;;;;20.17;15.60;;;7.10;99.90;;;;;;5085665;28;20216;-82
2021/03/24 00:18:21;;;;;;;31.75;16.65;;;7.00;99.90;;;;;;5079816;28;20266;-81
2021/03/24 00:20:50;;;;;;;31.17;18.75;;;7.00;99.90;;;;;;5079646;28;20742;-84
2021/03/24 00:23:17;;;;;;;25.65;18.75;;;7.00;99.90;;;;;;5080465;28;20208;-84
2021/03/24 00:25:43;;;;;;;27.35;18.25;;;7.00;99.90;;;;;;5078110;28;20330;-84
2021/03/24 00:28:11;;;;;;;28.13;19.17;;;7.00;99.90;;;;;;5083655;28;20227;-81
2021/03/24 00:30:41;;;;;;;26.33;18.35;;;7.00;99.90;;;;;;5081707;28;20199;-81
2021/03/24 00:33:08;;;;;;;23.63;17.67;;;7.00;99.90;;;;;;5078928;28;20196;-82
2021/03/24 00:35:35;;;;;;;22.02;17.15;;;6.90;99.90;;;;;;5076877;28;20652;-80
2021/03/24 00:38:02;;;;;;;22.90;16.00;;;6.80;99.90;;;;;;5071838;28;20184;-80
2021/03/24 00:40:32;;;;;;;25.73;16.20;;;6.70;99.90;;;;;;5082136;28;20278;-79
2021/03/24 00:42:59;;;;;;;20.42;15.27;;;6.70;99.90;;;;;;5080763;28;20561;-79
2021/03/24 00:45:25;;;;;;;20.75;15.45;;;6.70;99.90;;;;;;5083695;28;20192;-78
2021/03/24 00:47:52;;;;;;;20.55;15.25;;;6.60;99.90;;;;;;5078379;28;20203;-81
2021/03/24 00:50:22;;;;;;;17.88;13.38;;;6.60;99.90;;;;;;5081097;28;20294;-81
2021/03/24 00:52:49;;;;;;;20.67;12.90;;;6.50;99.90;;;;;;5080655;28;20292;-79
2021/03/24 00:55:17;;;;;;;17.13;14.02;;;6.50;99.90;;;;;;5082064;28;20198;-81
2021/03/24 00:57:44;;;;;;;17.42;13.82;;;6.40;99.90;;;;;;5084985;28;20195;-79
2021/03/24 01:00:14;;;;;;;20.17;14.30;;;6.30;99.90;;;;;;5079018;28;20299;-78
2021/03/24 01:02:41;;;;;;;17.88;13.18;;;6.30;99.90;;;;;;5082058;28;20224;-80
2021/03/24 01:05:09;;;;;;;21.42;14.50;;;6.20;99.90;;;;;;5084391;28;20280;-81
2021/03/24 01:07:35;;;;;;;21.80;15.35;;;6.20;99.90;;;;;;5085800;28;20192;-81
2021/03/24 01:10:04;;;;;;;25.35;16.52;;;6.10;99.90;;;;;;5087201;28;20208;-80
2021/03/24 01:12:32;;;;;;;22.35;16.67;;;6.10;99.90;;;;;;5083664;28;20232;-78
2021/03/24 01:14:58;;;;;;;28.98;18.25;;;6.10;99.90;;;;;;5086277;28;20235;-79
2021/03/24 01:17:24;;;;;;;21.55;16.50;;;6.00;99.90;;;;;;5082647;28;20325;-79
2021/03/24 01:19:51;;;;;;;28.92;18.50;;;6.00;99.90;;;;;;5085883;28;20192;-78
2021/03/24 01:22:17;;;;;;;28.05;21.08;;;6.00;99.90;;;;;;5082380;28;20197;-78
2021/03/24 01:24:43;;;;;;;28.55;19.27;;;6.10;99.90;;;;;;5086648;28;20188;-79
2021/03/24 01:27:10;;;;;;;31.55;20.58;;;6.10;99.90;;;;;;5079103;28;20291;-79
2021/03/24 01:29:37;;;;;;;25.52;20.52;;;6.20;99.90;;;;;;5081910;28;20295;-78
2021/03/24 01:32:04;;;;;;;22.52;17.10;;;6.20;99.90;;;;;;5086882;28;20219;-78
2021/03/24 01:34:31;;;;;;;27.33;20.25;;;6.20;99.90;;;;;;5080173;28;20199;-79
2021/03/24 01:36:57;;;;;;;32.65;21.42;;;6.20;99.90;;;;;;5085354;28;20199;-79
2021/03/24 01:39:24;;;;;;;30.38;21.23;;;6.20;99.90;;;;;;5087570;28;20287;-79
2021/03/24 01:41:50;;;;;;;27.55;19.90;;;6.20;99.90;;;;;;5084632;28;20200;-78
2021/03/24 01:44:17;;;;;;;31.48;20.20;;;6.20;99.90;;;;;;5084152;28;20196;-81
2021/03/24 01:46:46;;;;;;;32.70;19.63;;;6.20;99.90;;;;;;5086933;28;20644;-79
2021/03/24 01:49:17;;;;;;;26.63;19.10;;;6.20;99.90;;;;;;5079230;28;20200;-79
2021/03/24 01:51:47;;;;;;;30.33;21.38;;;6.20;99.90;;;;;;5086902;28;20222;-78
2021/03/24 01:54:17;;;;;;;35.85;21.58;;;6.20;99.90;;;;;;5083240;28;20663;-81
2021/03/24 01:56:46;;;;;;;30.58;18.00;;;6.30;99.90;;;;;;5082143;28;20302;-81
2021/03/24 01:59:12;;;;;;;33.03;20.33;;;6.30;99.90;;;;;;5086616;28;20283;-78
2021/03/24 02:01:39;;;;;;;26.05;19.35;;;6.30;99.90;;;;;;5087896;28;20231;-78
2021/03/24 02:04:06;;;;;;;28.27;20.25;;;6.30;99.90;;;;;;5083964;28;20330;-79
2021/03/24 02:06:38;;;;;;;25.25;19.10;;;6.30;99.90;;;;;;5085139;28;20216;-78
2021/03/24 02:09:18;;;;;;;33.17;21.33;;;6.30;99.90;;;;;;5084893;28;20200;-79
2021/03/24 02:11:53;;;;;;;23.33;17.83;;;6.30;99.90;;;;;;5086664;28;20311;-79
2021/03/24 02:14:26;;;;;;;35.00;21.73;;;6.30;99.90;;;;;;5085346;28;20207;-79
2021/03/24 02:16:55;;;;;;;29.52;19.80;;;6.30;99.90;;;;;;5083368;28;20256;-78
2021/03/24 02:19:35;;;;;;;25.83;18.75;;;6.40;99.90;;;;;;5084336;28;20203;-79
2021/03/24 02:22:03;;;;;;;28.70;19.77;;;6.40;99.90;;;;;;5080860;28;20200;-79
2021/03/24 02:24:39;;;;;;;31.13;20.40;;;6.40;99.90;;;;;;5081782;28;20224;-79
2021/03/24 02:27:11;;;;;;;29.27;19.27;;;6.40;99.90;;;;;;5074688;28;20203;-79
2021/03/24 02:29:42;;;;;;;28.17;19.60;;;6.50;99.90;;;;;;5083707;28;20208;-80
2021/03/24 02:32:12;;;;;;;35.17;20.17;;;6.50;99.90;;;;;;5088019;28;20252;-78
2021/03/24 02:34:40;;;;;;;34.35;21.58;;;6.50;99.90;;;;;;5083069;28;20192;-80
2021/03/24 02:37:07;;;;;;;26.55;20.40;;;6.50;99.90;;;;;;5083419;28;20195;-79
2021/03/24 02:39:35;;;;;;;29.45;18.15;;;6.60;99.90;;;;;;5082656;28;20294;-80
2021/03/24 02:42:04;;;;;;;19.50;15.38;;;6.50;99.90;;;;;;5079704;28;20485;-79
2021/03/24 02:44:34;;;;;;;26.35;17.67;;;6.40;99.90;;;;;;5083298;28;20222;-79
2021/03/24 02:47:03;;;;;;;21.77;14.98;;;6.30;99.90;;;;;;5078228;28;20585;-80
2021/03/24 02:49:31;;;;;;;25.05;18.08;;;6.10;99.90;;;;;;5080284;28;20187;-79
2021/03/24 02:51:58;;;;;;;18.30;15.70;;;6.00;99.90;;;;;;5080428;28;20311;-79
2021/03/24 02:54:28;;;;;;;21.20;15.63;;;6.00;99.90;;;;;;5082655;28;20548;-81
2021/03/24 02:56:55;;;;;;;24.67;16.40;;;5.90;99.90;;;;;;5081919;28;20670;-80
2021/03/24 02:59:21;;;;;;;18.77;15.98;;;5.80;99.90;;;;;;5084645;28;20731;-81
2021/03/24 03:01:54;;;;;;;21.02;15.80;;;5.80;99.90;;;;;;5081007;28;20330;-82
2021/03/24 03:04:27;;;;;;;23.58;16.63;;;5.80;99.90;;;;;;5074348;28;20201;-79
2021/03/24 03:06:57;;;;;;;24.25;18.23;;;5.80;99.90;;;;;;5083937;28;20189;-82
2021/03/24 03:09:31;;;;;;;24.10;18.92;;;5.80;99.90;;;;;;5080796;28;20200;-80
2021/03/24 03:12:03;;;;;;;29.52;18.75;;;5.90;99.90;;;;;;5080240;28;20219;-81
2021/03/24 03:14:38;;;;;;;25.30;18.90;;;6.00;99.90;;;;;;5084634;28;20279;-81
2021/03/24 03:17:10;;;;;;;24.90;16.80;;;6.00;99.90;;;;;;5080889;28;20670;-81
2021/03/24 03:19:41;;;;;;;24.80;18.40;;;6.00;99.90;;;;;;5080241;28;20279;-81
2021/03/24 03:22:11;;;;;;;21.95;16.60;;;6.00;99.90;;;;;;5079207;28;20580;-80
2021/03/24 03:24:42;;;;;;;25.70;16.08;;;6.00;99.90;;;;;;5077552;28;20287;-80
2021/03/24 03:27:11;;;;;;;23.75;15.20;;;5.90;99.90;;;;;;5078468;28;20279;-79
2021/03/24 03:29:40;;;;;;;23.30;15.73;;;5.80;99.90;;;;;;5080879;28;20207;-79
2021/03/24 03:32:10;;;;;;;18.65;14.55;;;5.80;99.90;;;;;;5081284;28;20591;-78
2021/03/24 03:34:39;;;;;;;21.15;16.23;;;5.80;99.90;;;;;;5081071;28;20219;-82
2021/03/24 03:37:08;;;;;;;29.42;17.67;;;5.90;99.90;;;;;;5084198;28;20498;-80
2021/03/24 03:39:35;;;;;;;24.65;15.73;;;5.90;99.90;;;;;;5083798;28;20336;-81
2021/03/24 03:42:04;;;;;;;21.95;14.52;;;6.00;99.90;;;;;;5080602;28;20203;-81
2021/03/24 03:44:32;;;;;;;19.98;13.77;;;5.90;99.90;;;;;;5079918;28;20283;-79
2021/03/24 03:47:05;;;;;;;23.70;15.45;;;5.90;99.90;;;;;;5082459;28;20192;-80
2021/03/24 03:49:33;;;;;;;23.70;15.60;;;5.80;99.90;;;;;;5081374;28;20287;-80
2021/03/24 03:52:38;;;;;;;23.10;15.43;;;5.80;99.90;;;;;;5085839;28;20359;-78
2021/03/24 03:55:19;;;;;;;26.05;16.73;;;5.80;99.90;;;;;;5050515;28;20198;-81
2021/03/24 03:57:51;;;;;;;20.55;15.18;;;5.70;99.90;;;;;;5081274;28;20246;-80
2021/03/24 04:00:23;;;;;;;24.88;15.95;;;5.70;99.90;;;;;;5080841;28;20231;-79
2021/03/24 04:02:54;;;;;;;29.70;18.73;;;5.70;99.90;;;;;;5087078;28;20224;-81
2021/03/24 04:05:26;;;;;;;29.75;18.58;;;5.80;99.90;;;;;;5076017;28;20200;-79
2021/03/24 04:07:56;;;;;;;30.95;17.95;;;6.00;99.90;;;;;;5079483;28;20200;-78
2021/03/24 04:10:25;;;;;;;27.95;18.48;;;6.00;99.90;;;;;;5079369;28;20341;-80
2021/03/24 04:12:54;;;;;;;26.48;16.95;;;6.10;99.90;;;;;;5082633;28;20303;-79
2021/03/24 04:15:22;;;;;;;19.27;14.60;;;6.10;99.90;;;;;;5083471;28;20337;-78
2021/03/24 04:17:52;;;;;;;21.58;16.90;;;6.00;99.90;;;;;;5082493;28;20245;-81
2021/03/24 04:20:21;;;;;;;25.85;16.05;;;6.00;99.90;;;;;;5085418;28;20294;-82
2021/03/24 04:22:51;;;;;;;26.88;16.80;;;6.00;99.90;;;;;;5082159;28;20393;-80
2021/03/24 04:25:23;;;;;;;27.05;15.93;;;6.00;99.90;;;;;;5080230;28;20199;-78
2021/03/24 04:27:51;;;;;;;37.88;17.55;;;6.10;99.90;;;;;;5084059;28;20238;-79
2021/03/24 04:30:24;;;;;;;26.58;18.58;;;6.20;99.90;;;;;;5081085;28;20279;-81
2021/03/24 04:32:50;;;;;;;22.25;16.35;;;6.20;99.90;;;;;;5080127;28;20220;-81
2021/03/24 04:35:21;;;;;;;26.90;15.70;;;6.10;99.90;;;;;;5074496;28;20230;-81
2021/03/24 04:37:51;;;;;;;20.90;15.18;;;6.00;99.90;;;;;;5084911;28;20227;-79
2021/03/24 04:40:27;;;;;;;25.40;16.73;;;5.90;99.90;;;;;;5087225;28;20206;-79
2021/03/24 04:42:57;;;;;;;24.27;17.08;;;5.80;99.90;;;;;;5082389;28;20718;-79
2021/03/24 04:45:39;;;;;;;27.98;16.42;;;5.70;99.90;;;;;;5089688;28;20199;-78
2021/03/24 04:48:13;;;;;;;25.50;15.88;;;5.70;99.90;;;;;;5084956;28;20222;-79
2021/03/24 04:50:42;;;;;;;23.33;15.75;;;5.70;99.90;;;;;;5091049;28;20274;-79
2021/03/24 04:53:14;;;;;;;26.42;16.45;;;5.60;99.90;;;;;;5088603;28;20230;-79
2021/03/24 04:55:42;;;;;;;33.90;17.02;;;5.60;99.90;;;;;;5083500;28;20307;-80
2021/03/24 04:58:28;;;;;;;25.05;16.23;;;5.60;99.90;;;;;;5085853;28;20339;-81
2021/03/24 05:01:00;;;;;;;26.13;17.25;;;5.60;99.90;;;;;;5089589;28;20219;-78
2021/03/24 05:03:32;;;;;;;32.78;16.30;;;5.60;99.90;;;;;;5083242;28;20188;-78
2021/03/24 05:06:04;;;;;;;28.48;15.68;;;5.60;99.90;;;;;;5087155;28;20203;-81
2021/03/24 05:08:37;;;;;;;24.55;14.20;;;5.50;99.90;;;;;;5090214;28;20200;-78
2021/03/24 05:11:10;;;;;;;25.70;16.35;;;5.40;99.90;;;;;;5091168;28;20521;-79
2021/03/24 05:13:41;;;;;;;23.60;17.17;;;5.40;99.90;;;;;;5086847;28;20206;-79
2021/03/24 05:16:17;;;;;;;30.15;17.50;;;5.30;99.90;;;;;;5090220;28;20266;-81
2021/03/24 05:18:51;;;;;;;26.55;16.08;;;5.30;99.90;;;;;;5087882;28;20215;-79
2021/03/24 05:21:26;;;;;;;30.52;17.38;;;5.20;99.90;;;;;;5085552;28;20191;-80
2021/03/24 05:23:57;;;;;;;33.10;17.63;;;5.20;99.90;;;;;;5087631;28;20202;-81
2021/03/24 05:26:27;;;;;;;26.70;17.00;;;5.20;99.90;;;;;;5090453;28;20206;-79
2021/03/24 05:28:55;;;;;;;26.13;16.00;;;5.10;99.90;;;;;;5091964;28;20260;-79
2021/03/24 05:31:26;;;;;;;26.95;16.73;;;5.10;99.90;;;;;;5089700;28;20681;-80
2021/03/24 05:33:59;;;;;;;29.42;17.60;;;5.10;99.90;;;;;;5086187;28;20731;-79
2021/03/24 05:36:31;;;;;;;32.88;16.60;;;5.10;99.90;;;;;;5090846;28;20737;-79
2021/03/24 05:39:11;;;;;;;29.25;16.83;;;5.00;99.90;;;;;;5084169;28;20675;-78
2021/03/24 05:41:43;;;;;;;32.15;17.55;;;5.00;99.90;;;;;;5087127;28;20199;-81
2021/03/24 05:44:42;;;;;;;29.15;16.88;;;5.00;99.90;;;;;;5093063;28;20205;-81
2021/03/24 05:47:38;;;;;;;26.10;16.65;;;5.00;99.90;;;;;;5089864;28;20749;-80
2021/03/24 05:50:25;;;;;;;29.73;17.10;;;5.00;99.90;;;;;;5084841;28;20194;-78
2021/03/24 05:53:01;;;;;;;28.25;18.00;;;4.90;99.90;;;;;;5084237;28;20236;-79
2021/03/24 05:55:36;;;;;;;28.50;16.15;;;4.90;99.90;;;;;;5082175;28;20234;-79
2021/03/24 05:58:17;;;;;;;23.35;16.05;;;4.90;99.90;;;;;;5077736;28;20309;-79
2021/03/24 06:00:49;;;;;;;25.98;15.98;;;4.90;99.90;;;;;;5084403;28;20332;-80
2021/03/24 06:03:49;;;;;;;33.10;16.90;;;4.80;99.90;;;;;;5089334;28;20195;-78
2021/03/24 06:06:47;;;;;;;31.25;16.48;;;4.80;99.90;;;;;;5087779;28;20209;-79
2021/03/24 06:09:36;;;;;;;30.27;17.88;;;4.70;99.90;;;;;;5082238;28;20285;-79
2021/03/24 06:12:28;;;;;;;35.03;17.40;;;4.70;99.90;;;;;;5075301;28;20230;-80
2021/03/24 06:15:23;;;;;;;29.50;17.33;;;4.70;99.90;;;;;;5082968;28;20230;-78
2021/03/24 06:18:02;;;;;;;32.45;16.10;;;4.70;99.90;;;;;;5077263;28;20273;-79
2021/03/24 06:20:39;;;;;;;37.00;18.88;;;4.70;99.90;;;;;;5078298;28;20614;-79
2021/03/24 06:23:32;;;;;;;26.52;15.77;;;4.70;99.90;;;;;;5082885;28;20203;-80
2021/03/24 06:26:14;;;;;;;31.08;16.63;;;4.70;99.90;;;;;;5083011;28;20198;-79
2021/03/24 06:28:49;;;;;;;24.85;15.30;;;4.70;99.90;;;;;;5081276;28;20227;-78
2021/03/24 06:31:50;;;;;;;23.33;16.67;;;4.70;99.90;;;;;;5078971;28;20190;-79
2021/03/24 06:34:37;;;;;;;24.60;17.38;;;4.70;99.90;;;;;;5078483;28;20211;-78
2021/03/24 06:37:14;;;;;;;28.15;16.90;;;4.80;99.90;;;;;;5087557;28;20205;-80
2021/03/24 06:40:03;;;;;;;30.38;16.65;;;4.80;99.90;;;;;;5086936;28;20206;-78
2021/03/24 06:42:43;;;;;;;20.65;15.52;;;4.80;99.90;;;;;;5083531;28;20670;-80
2021/03/24 06:45:39;;;;;;;32.65;18.17;;;4.90;99.90;;;;;;5082188;28;20194;-79
2021/03/24 06:48:16;;;;;;;30.73;16.83;;;5.00;99.90;;;;;;5080768;28;20235;-79
2021/03/24 06:51:16;;;;;;;40.22;20.25;;;5.00;99.90;;;;;;5083619;28;20198;-78
2021/03/24 06:54:23;;;;;;;29.45;18.05;;;5.10;99.90;;;;;;5072650;28;20699;-79
2021/03/24 06:57:28;;;;;;;36.50;20.42;;;5.20;99.90;;;;;;5080671;28;20201;-80
2021/03/24 07:00:24;;;;;;;32.95;18.48;;;5.40;99.90;;;;;;5078678;28;20200;-81
2021/03/24 07:03:37;;;;;;;47.10;20.95;;;5.60;99.90;;;;;;5078212;28;20227;-79
2021/03/24 07:06:20;;;;;;;35.05;20.45;;;5.70;99.90;;;;;;5080559;28;20201;-79
2021/03/24 07:09:05;;;;;;;40.22;21.77;;;5.90;99.90;;;;;;5078063;28;20204;-79
2021/03/24 07:11:51;;;;;;;50.25;22.48;;;6.10;99.90;;;;;;5081303;28;20232;-79
2021/03/24 07:14:50;;;;;;;36.97;20.15;;;6.30;99.90;;;;;;5079786;28;20291;-80
2021/03/24 07:17:31;;;;;;;39.95;22.23;;;6.40;99.90;;;;;;5078210;28;20845;-80
2021/03/24 07:20:30;;;;;;;41.08;20.33;;;6.60;99.90;;;;;;5078143;28;20208;-80
2021/03/24 07:23:26;;;;;;;42.30;20.90;;;6.70;99.90;;;;;;5072001;28;20235;-79
2021/03/24 07:26:02;;;;;;;35.95;21.90;;;6.90;99.90;;;;;;5077900;28;20275;-81
2021/03/24 07:28:49;;;;;;;32.88;21.17;;;7.00;99.90;;;;;;5077358;28;20226;-81
2021/03/24 07:31:37;;;;;;;38.45;21.50;;;7.10;99.90;;;;;;5082944;28;20218;-79
2021/03/24 07:34:15;;;;;;;36.80;19.17;;;7.20;99.90;;;;;;5082677;28;20729;-79
2021/03/24 07:37:11;;;;;;;40.78;20.25;;;7.30;99.90;;;;;;5072873;28;20197;-80
2021/03/24 07:40:03;;;;;;;35.50;20.35;;;7.50;99.90;;;;;;5073406;28;20193;-81
2021/03/24 07:43:11;;;;;;;42.33;20.15;;;7.60;99.90;;;;;;5082513;28;20587;-79
2021/03/24 07:45:54;;;;;;;28.20;19.23;;;7.70;99.90;;;;;;4999596;28;20199;-81
2021/03/24 07:48:46;;;;;;;42.38;20.10;;;7.80;99.90;;;;;;4992808;28;20285;-79
2021/03/24 07:51:19;;;;;;;38.75;20.38;;;7.90;99.90;;;;;;5053951;28;20283;-80
2021/03/24 07:53:56;;;;;;;41.70;18.85;;;7.90;99.90;;;;;;5084947;28;20198;-81
2021/03/24 07:56:35;;;;;;;42.08;22.00;;;8.00;99.90;;;;;;5078786;28;20211;-80
2021/03/24 07:59:34;;;;;;;41.30;20.75;;;8.10;99.90;;;;;;5082168;28;20329;-79
2021/03/24 08:02:25;;;;;;;26.77;19.15;;;8.20;99.90;;;;;;5081486;28;20263;-79
2021/03/24 08:05:22;;;;;;;33.53;20.98;;;8.30;99.90;;;;;;5082141;28;20287;-79
2021/03/24 08:07:55;;;;;;;39.45;18.45;;;8.40;99.90;;;;;;5080812;28;20288;-82
2021/03/24 08:10:36;;;;;;;37.35;20.90;;;8.40;99.90;;;;;;5076241;28;20283;-81
2021/03/24 08:13:22;;;;;;;35.83;21.67;;;8.60;99.90;;;;;;5082362;28;20354;-80
2021/03/24 08:16:14;;;;;;;36.08;20.52;;;8.60;99.90;;;;;;5081479;28;20202;-80
2021/03/24 08:18:52;;;;;;;35.25;19.65;;;8.70;99.90;;;;;;5070812;28;20315;-80
2021/03/24 08:21:26;;;;;;;34.63;19.63;;;8.80;99.90;;;;;;5077263;28;20231;-82
2021/03/24 08:24:20;;;;;;;41.92;21.50;;;8.90;99.90;;;;;;5078925;28;20199;-81
2021/03/24 08:26:49;;;;;;;34.83;18.77;;;8.90;99.90;;;;;;5080614;28;20759;-79
2021/03/24 08:29:28;;;;;;;40.03;20.98;;;9.00;99.90;;;;;;5070245;28;20226;-80
2021/03/24 08:32:21;;;;;;;38.22;18.88;;;9.10;99.90;;;;;;5067538;28;20225;-80
2021/03/24 08:35:16;;;;;;;33.60;20.55;;;9.10;99.90;;;;;;5078112;28;20221;-80
2021/03/24 08:38:05;;;;;;;38.88;21.63;;;9.20;99.90;;;;;;5069749;28;20199;-81
2021/03/24 08:41:19;;;;;;;38.95;20.25;;;9.30;99.90;;;;;;5068814;28;20656;-83
2021/03/24 08:43:56;;;;;;;33.60;19.38;;;9.40;99.90;;;;;;5028252;28;20199;-84
2021/03/24 08:46:28;;;;;;;32.67;21.48;;;9.50;99.90;;;;;;5079655;28;20285;-80
2021/03/24 08:48:58;;;;;;;42.13;22.55;;;9.50;99.90;;;;;;5072182;28;20206;-82
2021/03/24 08:51:49;;;;;;;25.52;16.38;;;9.60;99.90;;;;;;5078215;28;20237;-79
2021/03/24 08:54:57;;;;;;;33.88;19.95;;;9.80;99.90;;;;;;5071160;28;20731;-81
2021/03/24 08:57:33;;;;;;;37.85;19.35;;;10.10;99.90;;;;;;5068412;28;20195;-81
2021/03/24 09:00:09;;;;;;;58.42;20.55;;;10.20;99.90;;;;;;5072596;28;20205;-81
2021/03/24 09:02:47;;;;;;;38.03;18.65;;;10.40;99.90;;;;;;5070118;28;20234;-82
2021/03/24 09:05:22;;;;;;;30.63;18.15;;;10.50;99.90;;;;;;5068348;28;20191;-81
2021/03/24 09:08:18;;;;;;;37.80;19.60;;;10.80;99.90;;;;;;5070375;28;20194;-80
2021/03/24 09:10:54;;;;;;;46.03;21.20;;;11.00;99.90;;;;;;5069636;28;20287;-80
2021/03/24 09:13:26;;;;;;;32.80;17.83;;;11.10;99.90;;;;;;5071119;28;20309;-81
2021/03/24 09:16:21;;;;;;;44.60;21.20;;;11.20;99.90;;;;;;5075605;28;20234;-81
2021/03/24 09:18:51;;;;;;;38.25;21.35;;;11.30;99.90;;;;;;5074283;28;20199;-80
2021/03/24 09:21:21;;;;;;;36.95;20.25;;;11.40;99.90;;;;;;5072678;28;20192;-81
2021/03/24 09:24:20;;;;;;;37.97;21.77;;;11.40;99.90;;;;;;5070150;28;20324;-81
2021/03/24 09:27:22;;;;;;;39.72;21.35;;;11.40;99.90;;;;;;5072609;28;20469;-81
2021/03/24 09:30:05;;;;;;;43.97;24.25;;;11.50;99.90;;;;;;5079059;28;20215;-80
2021/03/24 09:32:35;;;;;;;41.03;22.07;;;11.60;99.90;;;;;;5076846;28;20231;-80
2021/03/24 09:35:27;;;;;;;34.67;21.20;;;11.70;99.90;;;;;;5078958;28;20466;-80
2021/03/24 09:38:02;;;;;;;33.97;20.73;;;11.80;99.90;;;;;;5078750;28;20780;-80
2021/03/24 09:40:37;;;;;;;34.33;20.43;;;11.80;99.90;;;;;;5075890;28;20461;-80
2021/03/24 09:43:14;;;;;;;42.27;21.73;;;11.90;99.90;;;;;;5082962;28;20809;-83
2021/03/24 09:45:41;;;;;;;34.93;20.80;;;12.00;99.90;;;;;;5077900;28;20478;-81
2021/03/24 09:48:13;;;;;;;42.00;24.10;;;12.00;99.90;;;;;;5077985;28;20474;-80
2021/03/24 09:50:45;;;;;;;36.08;20.63;;;12.10;99.90;;;;;;5081876;28;20562;-79
2021/03/24 09:53:15;;;;;;;38.80;21.90;;;12.20;99.90;;;;;;5078802;28;20311;-80
2021/03/24 09:55:44;;;;;;;42.53;20.27;;;12.20;99.90;;;;;;5080271;28;20953;-78
2021/03/24 09:58:43;;;;;;;40.27;22.40;;;12.30;99.90;;;;;;5078810;28;20516;-81
2021/03/24 10:01:52;;;;;;;34.87;20.97;;;12.30;99.90;;;;;;5079277;28;21052;-81
2021/03/24 10:04:42;;;;;;;37.23;21.47;;;12.40;99.90;;;;;;5060706;28;20497;-80
2021/03/24 10:07:15;;;;;;;36.03;21.57;;;12.50;99.90;;;;;;5072217;28;20492;-82
2021/03/24 10:09:52;;;;;;;37.43;20.20;;;12.50;99.90;;;;;;5079364;28;20464;-80
2021/03/24 10:12:28;;;;;;;35.90;21.00;;;12.60;99.90;;;;;;5077715;28;20548;-80
2021/03/24 10:15:09;;;;;;;39.10;20.93;;;12.60;99.90;;;;;;5081594;28;20493;-80
2021/03/24 10:17:39;;;;;;;40.73;21.03;;;12.70;99.90;;;;;;5078518;28;20450;-81
2021/03/24 10:20:17;;;;;;;38.53;22.30;;;12.80;99.90;;;;;;5074065;28;20536;-83
2021/03/24 10:22:49;;;;;;;31.40;20.40;;;12.90;99.90;;;;;;5070740;28;20499;-81
2021/03/24 10:25:21;;;;;;;35.00;19.40;;;12.90;99.90;;;;;;5074560;28;20461;-82
2021/03/24 10:27:52;;;;;;;37.23;19.10;;;13.00;99.90;;;;;;5074064;28;21217;-81
2021/03/24 10:30:30;;;;;;;32.00;18.83;;;13.10;99.90;;;;;;5072943;28;20963;-80
2021/03/24 10:33:08;;;;;;;30.10;19.80;;;13.10;99.90;;;;;;5076500;28;20494;-81
2021/03/24 10:35:39;;;;;;;33.07;20.37;;;13.20;99.90;;;;;;5074343;28;20813;-80
2021/03/24 10:38:42;;;;;;;28.90;17.90;;;13.20;99.90;;;;;;5076637;28;20936;-81
2021/03/24 10:41:17;;;;;;;38.90;18.27;;;13.30;99.90;;;;;;5043824;28;20454;-80
2021/03/24 10:43:47;;;;;;;33.87;19.60;;;13.30;99.90;;;;;;5082161;28;20878;-81
2021/03/24 10:46:21;;;;;;;31.03;18.33;;;13.40;99.90;;;;;;5074001;28;20546;-83
2021/03/24 10:48:54;;;;;;;40.10;18.07;;;13.50;99.90;;;;;;5072955;28;21027;-82
2021/03/24 10:51:26;;;;;;;27.20;15.63;;;13.50;99.90;;;;;;5073302;28;20925;-80
2021/03/24 10:54:11;;;;;;;32.63;17.40;;;13.50;99.90;;;;;;5076321;28;20496;-79
2021/03/24 10:56:48;;;;;;;33.17;17.70;;;13.60;99.90;;;;;;5074771;28;20828;-82
2021/03/24 10:59:23;;;;;;;31.43;17.77;;;13.60;99.90;;;;;;5079426;28;20574;-81
2021/03/24 11:01:54;;;;;;;36.50;19.03;;;13.70;99.90;;;;;;5081194;28;20488;-80
2021/03/24 11:04:31;;;;;;;34.23;19.47;;;13.70;99.90;;;;;;5073611;28;20578;-81
2021/03/24 11:07:04;;;;;;;31.20;17.93;;;13.80;99.90;;;;;;5078325;28;20467;-81
2021/03/24 11:09:42;;;;;;;30.10;18.60;;;13.80;99.90;;;;;;5078726;28;20457;-81
2021/03/24 11:12:13;;;;;;;28.17;18.83;;;13.90;99.90;;;;;;5079489;28;20493;-81
2021/03/24 11:14:43;;;;;;;32.33;18.77;;;13.90;99.90;;;;;;5072549;28;20985;-80
2021/03/24 11:17:18;;;;;;;34.80;18.47;;;14.00;99.90;;;;;;5078362;28;20818;-80
2021/03/24 11:19:47;;;;;;;43.70;19.20;;;14.00;99.90;;;;;;5070578;28;20451;-80
2021/03/24 11:22:24;;;;;;;28.70;18.03;;;14.00;99.90;;;;;;5068526;28;20812;-79
2021/03/24 11:24:56;;;;;;;38.20;20.90;;;14.10;99.90;;;;;;5073350;28;20471;-81
2021/03/24 11:27:29;;;;;;;45.43;20.30;;;14.10;99.90;;;;;;5072595;28;20478;-81
2021/03/24 11:30:03;;;;;;;33.07;18.30;;;14.10;99.90;;;;;;5073519;28;20512;-81
2021/03/24 11:32:37;;;;;;;30.70;19.73;;;14.20;99.90;;;;;;5073713;28;20963;-81
2021/03/24 11:35:14;;;;;;;38.43;20.10;;;14.30;99.90;;;;;;5072940;28;20456;-79
2021/03/24 11:37:46;;;;;;;42.63;19.80;;;14.30;99.90;;;;;;5075114;28;20537;-81
2021/03/24 11:40:27;;;;;;;34.27;19.47;;;14.40;99.90;;;;;;5071324;28;20715;-81
2021/03/24 11:42:58;;;;;;;29.17;16.03;;;14.40;99.90;;;;;;5072965;28;20536;-82
2021/03/24 11:45:27;;;;;;;40.23;19.57;;;14.50;99.90;;;;;;5077511;28;20516;-81
2021/03/24 11:48:20;;;;;;;34.33;17.00;;;14.50;99.90;;;;;;5075040;28;20460;-80
2021/03/24 11:50:57;;;;;;;25.13;16.43;;;14.60;99.90;;;;;;5077844;28;20871;-80
2021/03/24 11:53:39;;;;;;;31.10;17.13;;;14.60;99.90;;;;;;5074735;28;20579;-83
2021/03/24 11:56:18;;;;;;;27.80;16.57;;;14.70;99.90;;;;;;5074400;28;21854;-81
2021/03/24 11:58:48;;;;;;;29.93;17.30;;;14.70;99.90;;;;;;5080631;28;20453;-79
2021/03/24 12:01:37;;;;;;;27.80;16.33;;;14.70;99.90;;;;;;5070557;28;20825;-80
2021/03/24 12:04:22;;;;;;;29.10;18.50;;;14.80;99.90;;;;;;5072986;28;20934;-81
2021/03/24 12:07:04;;;;;;;30.87;18.07;;;14.80;99.90;;;;;;5073426;28;20526;-82
2021/03/24 12:09:33;;;;;;;34.33;20.07;;;14.90;99.90;;;;;;5071543;28;20547;-81
2021/03/24 12:12:14;;;;;;;37.87;17.40;;;15.00;99.90;;;;;;5073445;28;20833;-81
2021/03/24 12:14:43;;;;;;;29.60;17.93;;;15.00;99.90;;;;;;5073818;28;20506;-81
2021/03/24 12:17:26;;;;;;;28.37;16.37;;;15.10;99.90;;;;;;5074480;28;20457;-81
2021/03/24 12:19:52;;;;;;;25.37;16.10;;;15.10;99.90;;;;;;5073088;28;20804;-81
2021/03/24 12:22:26;;;;;;;28.03;17.37;;;15.10;99.90;;;;;;5074792;28;20551;-81
2021/03/24 12:25:02;;;;;;;31.83;18.07;;;15.20;99.90;;;;;;5071294;28;20468;-82
2021/03/24 12:27:32;;;;;;;30.37;18.00;;;15.20;99.90;;;;;;5075096;28;20488;-82
2021/03/24 12:30:03;;;;;;;29.40;17.20;;;15.30;99.90;;;;;;5073907;28;20500;-80
2021/03/24 12:32:34;;;;;;;25.90;15.50;;;15.30;99.90;;;;;;5072409;28;20497;-80
2021/03/24 12:35:02;;;;;;;27.40;17.20;;;15.40;99.90;;;;;;5069914;28;20477;-82
2021/03/24 12:37:31;;;;;;;37.10;18.87;;;15.40;99.90;;;;;;5074292;28;20461;-82
2021/03/24 12:40:09;;;;;;;30.37;16.23;;;15.40;99.90;;;;;;5073291;28;20469;-80
2021/03/24 12:42:36;;;;;;;27.13;17.40;;;15.40;99.90;;;;;;5075372;28;20560;-79
2021/03/24 12:45:28;;;;;;;35.00;18.13;;;15.40;99.90;;;;;;5073513;28;20610;-81
2021/03/24 12:48:04;;;;;;;29.50;17.47;;;15.50;99.90;;;;;;5068300;28;20459;-79
2021/03/24 12:50:33;;;;;;;29.90;15.93;;;15.60;99.90;;;;;;5077016;28;20775;-79
2021/03/24 12:53:15;;;;;;;32.83;16.80;;;15.60;99.90;;;;;;5078633;28;20486;-81
2021/03/24 12:55:43;;;;;;;30.83;17.80;;;15.70;99.90;;;;;;5071936;28;20460;-82
2021/03/24 12:58:32;;;;;;;33.60;16.70;;;15.70;99.90;;;;;;5081141;28;20551;-80
2021/03/24 13:01:12;;;;;;;30.70;17.57;;;15.70;99.90;;;;;;5077647;28;20565;-82
2021/03/24 13:04:06;;;;;;;33.93;18.87;;;15.80;99.90;;;;;;5077449;28;20865;-80
2021/03/24 13:06:52;;;;;;;34.20;19.03;;;15.80;99.90;;;;;;5071791;28;20465;-81
2021/03/24 13:09:28;;;;;;;27.27;16.40;;;15.90;99.90;;;;;;5077007;28;20925;-81
2021/03/24 13:12:04;;;;;;;28.60;17.50;;;16.00;99.90;;;;;;5077327;28;20534;-82
2021/03/24 13:14:56;;;;;;;26.73;16.20;;;16.10;99.90;;;;;;5075664;28;21698;-83
2021/03/24 13:17:38;;;;;;;21.67;14.83;;;16.00;99.90;;;;;;5079276;28;20541;-80
2021/03/24 13:20:21;;;;;;;24.77;16.00;;;16.10;99.90;;;;;;5072100;28;20466;-82